Time;durP1;ratioP1;P1;durP2;ratioP2;P2;SDS_P1;SDS_P2;PMS_P1;PMS_P2;Temp;Humidity;BMP_temperature;BMP_pressure;BME280_temperature;BME280_humidity;BME280_pressure;Samples;Min_cycle;Max_cycle;Signal;HPM_P1;HPM_P2
2022/08/03 00:02:00;;;;;;;12.88;7.43;;;;;;;18.93;73.70;99476.28;4956223;29;20043;-79
2022/08/03 00:04:26;;;;;;;21.52;8.00;;;;;;;18.89;73.90;99486.63;4972401;28;20043;-77
2022/08/03 00:06:52;;;;;;;15.27;7.03;;;;;;;18.91;73.97;99481.00;4972156;28;20046;-77
2022/08/03 00:09:17;;;;;;;12.73;7.15;;;;;;;18.93;73.74;99487.13;4955157;28;20057;-77
2022/08/03 00:11:43;;;;;;;16.70;7.43;;;;;;;18.99;73.70;99491.81;4955708;29;20137;-77
2022/08/03 00:14:09;;;;;;;22.02;7.38;;;;;;;18.93;73.33;99473.56;4972371;28;20043;-77
2022/08/03 00:16:35;;;;;;;13.80;6.97;;;;;;;19.05;73.12;99490.28;4956333;29;20050;-77
2022/08/03 00:19:01;;;;;;;16.50;6.90;;;;;;;18.99;73.11;99491.81;4956025;29;20047;-78
2022/08/03 00:21:28;;;;;;;13.80;7.03;;;;;;;19.04;73.01;99492.16;4956057;29;20403;-77
2022/08/03 00:23:55;;;;;;;21.20;7.35;;;;;;;18.99;73.29;99491.81;4939980;29;20047;-77
2022/08/03 00:26:20;;;;;;;18.00;7.38;;;;;;;18.92;73.58;99493.56;4955308;29;20050;-78
2022/08/03 00:28:47;;;;;;;21.70;7.72;;;;;;;18.81;73.88;99481.22;4955527;29;20043;-77
2022/08/03 00:31:13;;;;;;;19.73;7.90;;;;;;;18.85;74.08;99500.69;4956967;28;20495;-77
2022/08/03 00:33:39;;;;;;;10.95;7.15;;;;;;;18.83;74.11;99494.56;4939769;29;20411;-78
2022/08/03 00:36:05;;;;;;;10.98;6.55;;;;;;;18.77;74.24;99487.13;4956851;28;20054;-77
2022/08/03 00:38:31;;;;;;;17.13;7.25;;;;;;;18.81;74.14;99499.34;4955656;29;20054;-77
2022/08/03 00:40:57;;;;;;;11.65;8.02;;;;;;;18.81;74.81;99504.75;4971502;28;20058;-77
2022/08/03 00:43:25;;;;;;;19.52;8.23;;;;;;;18.74;75.10;99499.16;4971441;28;20406;-77
2022/08/03 00:45:53;;;;;;;16.38;8.27;;;;;;;18.78;75.24;99511.34;4956412;29;20039;-77
2022/08/03 00:48:19;;;;;;;17.05;8.23;;;;;;;18.76;75.11;99507.94;4971314;28;20061;-77
2022/08/03 00:50:46;;;;;;;12.23;7.90;;;;;;;18.78;75.33;99513.22;4955290;29;20059;-79
2022/08/03 00:53:13;;;;;;;22.30;8.55;;;;;;;18.77;75.26;99515.06;4971328;28;20046;-77
2022/08/03 00:55:43;;;;;;;11.25;7.75;;;;;;;18.75;75.57;99514.38;4971249;28;20043;-78
2022/08/03 00:58:10;;;;;;;17.45;7.45;;;;;;;18.78;75.58;99510.50;4956797;28;20047;-78
2022/08/03 01:00:37;;;;;;;15.45;8.15;;;;;;;18.80;75.21;99508.44;4923389;29;20053;-77
2022/08/03 01:03:08;;;;;;;13.52;8.25;;;;;;;18.77;74.95;99497.97;4955194;28;20043;-78
2022/08/03 01:05:51;;;;;;;13.15;7.85;;;;;;;18.88;74.49;99517.44;4955410;29;20051;-78
2022/08/03 01:08:38;;;;;;;16.10;8.60;;;;;;;18.84;74.62;99517.91;4955392;29;20074;-77
2022/08/03 01:11:39;;;;;;;17.80;7.78;;;;;;;18.84;74.98;99526.06;4938897;29;20520;-78
2022/08/03 01:14:12;;;;;;;24.27;8.35;;;;;;;18.85;74.96;99525.06;4938762;29;20043;-77
2022/08/03 01:16:44;;;;;;;16.60;7.70;;;;;;;18.88;74.72;99528.25;4971483;28;20043;-77
2022/08/03 01:20:00;;;;;;;15.75;8.30;;;;;;;18.86;74.89;99534.88;4954985;28;20047;-79
2022/08/03 01:23:00;;;;;;;15.07;7.90;;;;;;;18.81;75.42;99537.25;4949085;28;20086;-77
2022/08/03 01:25:51;;;;;;;18.10;7.80;;;;;;;18.75;75.25;99532.50;4954650;29;20047;-77
2022/08/03 01:28:55;;;;;;;16.52;8.07;;;;;;;18.78;75.34;99527.59;4954657;29;20528;-77
2022/08/03 01:31:28;;;;;;;16.23;8.23;;;;;;;18.82;75.24;99533.50;4954524;29;20062;-77
2022/08/03 01:34:02;;;;;;;17.65;8.02;;;;;;;18.89;74.83;99535.38;4970718;28;20039;-77
2022/08/03 01:36:47;;;;;;;13.57;7.82;;;;;;;18.81;74.88;99531.84;4954661;29;20050;-78
2022/08/03 01:39:15;;;;;;;23.42;8.20;;;;;;;18.80;75.31;99535.53;4955881;28;20129;-77
2022/08/03 01:41:49;;;;;;;18.33;8.57;;;;;;;18.87;74.77;99544.66;4970992;28;20047;-77
2022/08/03 01:44:16;;;;;;;14.68;8.90;;;;;;;18.95;74.44;99543.81;4954474;29;20425;-77
2022/08/03 01:46:43;;;;;;;14.50;9.20;;;;;;;18.93;74.85;99546.72;4938041;29;20039;-76
2022/08/03 01:49:11;;;;;;;18.55;8.95;;;;;;;19.05;74.38;99545.31;4954162;29;20522;-77
2022/08/03 01:51:42;;;;;;;11.60;8.13;;;;;;;18.96;74.22;99524.69;4937975;29;20039;-77
2022/08/03 01:54:11;;;;;;;14.68;8.55;;;;;;;19.01;74.35;99546.69;4954328;29;20043;-77
2022/08/03 01:56:40;;;;;;;14.77;8.27;;;;;;;18.98;74.65;99533.47;4969940;28;20055;-77
2022/08/03 01:59:07;;;;;;;17.85;8.10;;;;;;;18.97;74.86;99542.63;4954159;29;20057;-77
2022/08/03 02:01:35;;;;;;;19.00;8.63;;;;;;;18.95;74.29;99538.41;4955188;28;20043;-78
2022/08/03 02:04:02;;;;;;;18.65;8.82;;;;;;;19.06;74.40;99541.59;4955149;29;20051;-77
2022/08/03 02:06:32;;;;;;;17.67;8.95;;;;;;;19.08;74.32;99550.41;4957502;28;20050;-78
2022/08/03 02:09:00;;;;;;;19.85;8.88;;;;;;;19.06;74.52;99547.00;4985262;28;20046;-81
2022/08/03 02:11:30;;;;;;;22.40;8.55;;;;;;;19.08;74.33;99550.41;4973405;28;20047;-77
2022/08/03 02:13:59;;;;;;;12.10;8.43;;;;;;;19.23;73.64;99541.56;4974388;28;20058;-77
2022/08/03 02:16:27;;;;;;;18.73;8.32;;;;;;;19.36;73.34;99547.28;4989262;28;20052;-77
2022/08/03 02:18:55;;;;;;;13.98;7.25;;;;;;;19.39;73.04;99541.50;4989210;28;20082;-82
2022/08/03 02:21:22;;;;;;;21.27;8.65;;;;;;;19.47;72.44;99538.75;4973074;28;20505;-77
2022/08/03 02:23:49;;;;;;;20.65;8.05;;;;;;;19.42;72.76;99552.84;4974090;28;20050;-78
2022/08/03 02:26:19;;;;;;;12.73;7.93;;;;;;;19.33;72.60;99536.78;4956715;28;20038;-77
2022/08/03 02:28:48;;;;;;;12.60;7.32;;;;;;;19.37;72.93;99549.00;4972558;28;20042;-76
2022/08/03 02:31:21;;;;;;;13.20;7.43;;;;;;;19.50;72.26;99534.88;4972239;28;20137;-78
2022/08/03 02:33:54;;;;;;;15.45;8.40;;;;;;;19.53;72.49;99559.75;4973604;28;20049;-77
2022/08/03 02:36:25;;;;;;;16.13;9.05;;;;;;;19.70;72.20;99557.00;4972868;28;20054;-77
2022/08/03 02:38:56;;;;;;;14.00;8.20;;;;;;;19.65;72.22;99557.53;4972907;28;20089;-77
2022/08/03 02:41:26;;;;;;;12.57;7.70;;;;;;;19.72;72.38;99549.56;4988667;28;20054;-77
2022/08/03 02:43:54;;;;;;;13.82;7.65;;;;;;;19.67;72.09;99551.94;4971549;28;20042;-77
2022/08/03 02:46:24;;;;;;;14.20;7.85;;;;;;;19.76;72.00;99559.03;4944498;29;20047;-80
2022/08/03 02:48:52;;;;;;;16.83;8.27;;;;;;;19.67;72.11;99543.78;4958138;28;20039;-77
2022/08/03 02:51:20;;;;;;;13.95;7.85;;;;;;;19.80;71.89;99552.22;4953414;29;20043;-77
2022/08/03 02:53:47;;;;;;;15.93;7.18;;;;;;;19.86;71.32;99555.09;4969408;28;20055;-79
2022/08/03 02:56:15;;;;;;;12.10;7.32;;;;;;;19.94;71.21;99562.34;4937234;29;20051;-77
2022/08/03 02:58:42;;;;;;;17.33;7.90;;;;;;;20.00;71.04;99563.47;4953378;28;20418;-78
2022/08/03 03:01:09;;;;;;;15.55;7.35;;;;;;;20.12;70.72;99567.47;4972519;28;20457;-77
2022/08/03 03:03:37;;;;;;;14.52;7.97;;;;;;;20.20;69.68;99567.44;4972475;28;20137;-82
2022/08/03 03:06:04;;;;;;;17.13;7.53;;;;;;;20.30;69.46;99556.34;4972477;28;20045;-77
2022/08/03 03:08:30;;;;;;;21.55;7.32;;;;;;;20.47;68.75;99574.22;4973851;28;20047;-80
2022/08/03 03:11:00;;;;;;;12.70;6.80;;;;;;;20.61;68.12;99570.75;4988234;28;20050;-78
2022/08/03 03:13:27;;;;;;;13.35;6.38;;;;;;;20.73;67.55;99568.44;4988637;28;20515;-79
2022/08/03 03:15:58;;;;;;;16.27;6.45;;;;;;;20.96;66.88;99573.84;4988529;28;20042;-78
2022/08/03 03:18:26;;;;;;;15.80;7.00;;;;;;;21.22;65.94;99572.56;4988798;28;20039;-78
2022/08/03 03:20:53;;;;;;;19.65;6.68;;;;;;;21.32;64.89;99570.41;4972447;28;20055;-78
2022/08/03 03:23:21;;;;;;;17.48;6.53;;;;;;;21.31;64.87;99571.44;4972207;28;20039;-77
2022/08/03 03:25:48;;;;;;;13.95;5.13;;;;;;;21.60;62.87;99576.09;4972375;28;20034;-77
2022/08/03 03:28:14;;;;;;;16.00;5.30;;;;;;;21.60;61.54;99558.91;4972336;28;20072;-79
2022/08/03 03:30:40;;;;;;;16.55;4.78;;;;;;;21.77;61.79;99563.09;4955988;28;20133;-77
2022/08/03 03:33:06;;;;;;;21.60;4.88;;;;;;;22.26;61.13;99570.63;4972476;28;20077;-80
2022/08/03 03:35:33;;;;;;;13.13;4.70;;;;;;;22.51;59.31;99573.84;4973625;28;20039;-77
2022/08/03 03:37:59;;;;;;;17.63;5.43;;;;;;;22.54;57.74;99568.00;4973458;28;20047;-77
2022/08/03 03:40:26;;;;;;;18.08;5.15;;;;;;;22.59;57.44;99570.13;4972311;28;20549;-77
2022/08/03 03:42:52;;;;;;;13.75;4.78;;;;;;;22.67;57.89;99572.72;4955973;28;20049;-79
2022/08/03 03:45:20;;;;;;;21.23;5.00;;;;;;;22.75;56.63;99569.84;4975972;28;20092;-79
2022/08/03 03:47:46;;;;;;;15.02;4.85;;;;;;;22.85;56.33;99575.84;4991392;28;20049;-77
2022/08/03 03:50:16;;;;;;;23.60;4.55;;;;;;;22.76;56.08;99577.03;4959298;28;20042;-77
2022/08/03 03:52:42;;;;;;;25.33;5.05;;;;;;;22.48;56.33;99579.66;4975886;28;20066;-77
2022/08/03 03:55:08;;;;;;;25.95;4.93;;;;;;;22.18;57.08;99578.91;4976250;28;20101;-78
2022/08/03 03:57:34;;;;;;;19.50;4.53;;;;;;;22.03;57.56;99587.94;4975693;28;20054;-76
2022/08/03 04:00:00;;;;;;;23.17;5.53;;;;;;;22.12;57.80;99579.69;4975375;28;20046;-79
2022/08/03 04:02:26;;;;;;;19.88;4.55;;;;;;;22.40;57.55;99577.91;4974498;28;20524;-76
2022/08/03 04:10:57;;;;;;;15.88;5.05;;;;;;;22.06;57.03;99584.00;4975585;28;20443;-77
2022/08/03 04:13:26;;;;;;;24.77;4.53;;;;;;;22.11;57.80;99577.97;4992001;28;20050;-78
2022/08/03 04:15:53;;;;;;;20.38;4.60;;;;;;;22.04;57.16;99577.88;4975452;28;20502;-78
2022/08/03 04:18:21;;;;;;;16.17;4.38;;;;;;;22.10;57.70;99576.28;4975227;28;20042;-77
2022/08/03 04:20:49;;;;;;;13.43;4.70;;;;;;;22.16;56.98;99581.84;4959001;28;20101;-77
2022/08/03 04:23:18;;;;;;;14.57;4.55;;;;;;;22.23;57.19;99576.50;4976849;28;20062;-77
2022/08/03 04:25:45;;;;;;;;;;;;;;;22.53;57.17;99588.97;4975547;28;20528;-79
2022/08/03 04:28:11;;;;;;;11.63;4.30;;;;;;;22.68;56.45;99579.84;4976407;28;20076;-78
2022/08/03 04:30:46;;;;;;;13.15;4.20;;;;;;;22.55;55.65;99586.88;4991760;28;20043;-79
2022/08/03 04:33:13;;;;;;;16.05;4.47;;;;;;;22.29;56.73;99589.31;4975407;28;20509;-80
2022/08/03 04:35:42;;;;;;;17.77;4.38;;;;;;;22.38;56.48;99596.34;4975317;28;20047;-80
2022/08/03 04:38:09;;;;;;;;;;;;;;;22.37;56.87;99594.63;4975662;28;20379;-80
2022/08/03 04:40:40;;;;;;;14.38;4.38;;;;;;;22.52;56.62;99603.59;4975004;28;19921;-79
2022/08/03 04:43:09;;;;;;;17.25;4.30;;;;;;;22.68;56.28;99588.03;4975317;28;20050;-81
2022/08/03 04:45:36;;;;;;;14.20;3.97;;;;;;;22.88;55.24;99601.88;4974949;28;20046;-80
2022/08/03 04:48:03;;;;;;;15.95;3.90;;;;;;;22.89;54.67;99598.94;4958892;28;20046;-79
2022/08/03 04:50:29;;;;;;;14.05;4.22;;;;;;;22.99;54.44;99594.03;4976256;28;20078;-80
2022/08/03 04:53:05;;;;;;;19.17;3.80;;;;;;;23.09;54.27;99601.00;4958662;28;20150;-81
2022/08/03 04:55:33;;;;;;;12.50;3.92;;;;;;;23.45;54.45;99598.97;4974131;28;20042;-79
2022/08/03 04:58:00;;;;;;;9.52;3.72;;;;;;;23.72;53.05;99604.63;4959168;28;20062;-78
2022/08/03 05:00:27;;;;;;;9.43;3.80;;;;;;;23.97;52.03;99602.25;4974624;28;20057;-79
2022/08/03 05:02:54;;;;;;;11.20;3.28;;;;;;;24.37;52.34;99603.22;4974933;28;20039;-79
2022/08/03 05:05:21;;;;;;;10.90;3.30;;;;;;;24.73;51.50;99596.59;4990648;28;20066;-80
2022/08/03 05:07:47;;;;;;;11.05;3.20;;;;;;;24.81;49.54;99601.03;4974060;28;20050;-79
2022/08/03 05:10:14;;;;;;;7.70;3.25;;;;;;;24.64;49.93;99608.78;4974247;28;20050;-79
2022/08/03 05:12:40;;;;;;;11.38;3.08;;;;;;;24.86;49.94;99607.56;4990552;28;20057;-79
2022/08/03 05:15:06;;;;;;;10.65;3.08;;;;;;;25.00;48.66;99596.63;4974447;28;20043;-78
2022/08/03 05:17:33;;;;;;;8.00;2.60;;;;;;;25.03;49.05;99604.41;4974186;28;20093;-78
2022/08/03 05:19:59;;;;;;;13.40;3.00;;;;;;;25.28;48.05;99610.97;4990304;28;20129;-78
2022/08/03 05:22:26;;;;;;;7.38;2.70;;;;;;;25.50;48.48;99613.44;4974137;28;20042;-78
2022/08/03 05:24:52;;;;;;;7.63;2.38;;;;;;;25.60;47.82;99611.09;4973961;28;20042;-78
2022/08/03 05:27:20;;;;;;;5.30;2.38;;;;;;;25.73;46.86;99608.34;4973872;28;20414;-80
2022/08/03 05:29:47;;;;;;;8.30;2.70;;;;;;;25.87;46.23;99610.00;4975286;28;20054;-79
2022/08/03 05:32:14;;;;;;;16.52;2.83;;;;;;;26.04;46.41;99610.38;4990066;28;20109;-80
2022/08/03 05:34:40;;;;;;;4.53;2.33;;;;;;;25.87;45.94;99620.13;4957649;28;20485;-79
2022/08/03 05:37:06;;;;;;;5.28;2.40;;;;;;;26.05;45.97;99623.00;4990382;28;20047;-78
2022/08/03 05:39:33;;;;;;;7.28;2.22;;;;;;;26.02;46.10;99622.59;4990034;28;20074;-78
2022/08/03 05:41:59;;;;;;;4.47;2.00;;;;;;;26.16;45.77;99624.25;4973822;28;20068;-78
2022/08/03 05:44:25;;;;;;;6.85;2.28;;;;;;;26.27;45.31;99620.81;4989927;28;20077;-78
2022/08/03 05:46:51;;;;;;;7.95;2.60;;;;;;;26.20;45.18;99624.66;4989782;28;20050;-79
2022/08/03 05:49:17;;;;;;;8.77;2.95;;;;;;;26.17;45.29;99632.22;4973566;28;20043;-78
2022/08/03 05:51:43;;;;;;;8.80;2.60;;;;;;;26.05;45.49;99633.13;4973629;28;20046;-78
2022/08/03 05:54:09;;;;;;;5.40;2.47;;;;;;;25.95;45.00;99639.06;4973405;28;20046;-79
2022/08/03 05:56:35;;;;;;;16.33;3.03;;;;;;;25.78;45.24;99638.69;4989961;28;20047;-79
2022/08/03 05:59:01;;;;;;;12.45;3.00;;;;;;;25.12;46.43;99644.19;4957312;28;20049;-79
2022/08/03 06:01:26;;;;;;;13.23;3.03;;;;;;;24.94;46.81;99648.38;4973470;28;20050;-79
2022/08/03 06:03:52;;;;;;;14.73;3.55;;;;;;;24.57;47.95;99647.03;4973420;28;20069;-78
2022/08/03 06:06:18;;;;;;;10.57;2.95;;;;;;;24.16;48.64;99652.53;4972726;28;20498;-79
2022/08/03 06:08:45;;;;;;;16.80;2.90;;;;;;;23.76;49.56;99655.03;4973538;28;20042;-78
2022/08/03 06:11:11;;;;;;;12.48;2.97;;;;;;;23.99;49.20;99650.13;4989440;28;20061;-78
2022/08/03 06:13:38;;;;;;;14.77;3.40;;;;;;;24.38;48.87;99645.91;4973038;28;20066;-77
2022/08/03 06:16:04;;;;;;;8.00;3.28;;;;;;;24.34;48.52;99646.50;4989302;28;20141;-80
2022/08/03 06:18:30;;;;;;;12.27;3.38;;;;;;;24.40;47.95;99641.09;4973202;28;20046;-82
2022/08/03 06:20:56;;;;;;;19.50;3.10;;;;;;;24.47;48.03;99646.56;4974378;28;20058;-81
2022/08/03 06:23:22;;;;;;;19.88;3.42;;;;;;;24.48;48.51;99653.72;4972973;28;20038;-80
2022/08/03 06:25:48;;;;;;;16.23;3.70;;;;;;;24.82;47.72;99650.00;4974420;28;20047;-79
2022/08/03 06:28:14;;;;;;;7.90;3.00;;;;;;;24.89;47.51;99645.41;4989203;28;20045;-79
2022/08/03 06:30:40;;;;;;;10.75;3.60;;;;;;;25.03;47.51;99634.50;4972713;28;20133;-80
2022/08/03 06:33:06;;;;;;;14.70;3.72;;;;;;;25.59;47.18;99645.03;4989629;28;20058;-81
2022/08/03 06:35:33;;;;;;;9.23;2.72;;;;;;;26.09;45.83;99634.38;4972657;28;20053;-79
2022/08/03 06:37:59;;;;;;;5.95;2.60;;;;;;;26.44;44.48;99639.50;4974354;28;20125;-78
2022/08/03 06:40:31;;;;;;;10.80;2.40;;;;;;;26.63;43.38;99639.44;4972492;28;20039;-78
2022/08/03 06:42:59;;;;;;;5.03;2.35;;;;;;;26.68;42.70;99644.25;4988963;28;20058;-78
2022/08/03 06:45:25;;;;;;;9.38;2.15;;;;;;;27.07;43.32;99642.28;4972597;28;20550;-79
2022/08/03 06:48:05;;;;;;;9.27;2.10;;;;;;;27.25;42.38;99644.28;4972797;28;20137;-78
2022/08/03 06:50:32;;;;;;;5.05;2.25;;;;;;;27.34;42.29;99632.81;4972698;28;20107;-78
2022/08/03 06:52:59;;;;;;;8.05;2.30;;;;;;;27.40;42.50;99643.97;4956173;28;20062;-80
2022/08/03 06:55:25;;;;;;;2.53;2.05;;;;;;;27.39;42.03;99639.53;4972118;28;20101;-81
2022/08/03 06:57:51;;;;;;;7.50;2.28;;;;;;;27.51;42.03;99633.06;4988854;28;20048;-80
2022/08/03 07:00:17;;;;;;;7.95;2.30;;;;;;;27.60;41.68;99639.94;4974302;28;20184;-81
2022/08/03 07:02:43;;;;;;;6.15;3.03;;;;;;;27.58;41.67;99639.34;4988652;28;20059;-81
2022/08/03 07:05:09;;;;;;;6.85;2.60;;;;;;;27.27;41.42;99639.41;4973856;28;20050;-81
2022/08/03 07:07:36;;;;;;;5.28;2.25;;;;;;;26.80;41.47;99634.25;4972514;28;20093;-80
2022/08/03 07:10:04;;;;;;;3.72;2.08;;;;;;;26.56;42.33;99635.06;4973829;28;20054;-81
2022/08/03 07:12:30;;;;;;;8.23;2.30;;;;;;;26.86;42.48;99644.34;4972247;28;20097;-80
2022/08/03 07:14:57;;;;;;;7.20;2.17;;;;;;;27.01;41.96;99627.56;4972743;28;20043;-80
2022/08/03 07:17:27;;;;;;;6.72;2.00;;;;;;;27.15;42.04;99622.84;4973798;28;20058;-80
2022/08/03 07:19:52;;;;;;;10.20;2.10;;;;;;;27.30;41.41;99628.81;4959920;28;20066;-80
2022/08/03 07:22:18;;;;;;;3.20;2.00;;;;;;;27.12;41.52;99634.28;4960207;28;20410;-80
2022/08/03 07:24:45;;;;;;;8.75;2.38;;;;;;;27.24;41.87;99635.22;4976244;28;20525;-80
2022/08/03 07:27:11;;;;;;;9.48;1.88;;;;;;;27.53;41.42;99630.09;4992294;28;20042;-80
2022/08/03 07:29:37;;;;;;;5.75;2.28;;;;;;;27.30;41.00;99630.72;4976191;28;20078;-80
2022/08/03 07:32:03;;;;;;;2.30;2.00;;;;;;;27.01;41.75;99615.75;4992145;28;20399;-81
2022/08/03 07:34:30;;;;;;;12.57;2.17;;;;;;;27.28;41.97;99633.72;4976074;28;20041;-80
2022/08/03 07:36:56;;;;;;;8.07;2.10;;;;;;;27.47;41.24;99617.28;4976077;28;20072;-81
2022/08/03 07:39:22;;;;;;;8.90;2.10;;;;;;;27.55;40.74;99630.72;4975911;28;20497;-83
2022/08/03 07:41:50;;;;;;;3.17;1.85;;;;;;;27.40;41.25;99627.50;4976539;28;20049;-81
2022/08/03 07:44:18;;;;;;;7.88;2.05;;;;;;;27.78;41.15;99628.16;4992894;28;20046;-80
2022/08/03 07:46:43;;;;;;;8.80;1.90;;;;;;;28.09;40.75;99620.84;4992204;28;20502;-79
2022/08/03 07:49:10;;;;;;;4.45;1.80;;;;;;;28.24;40.35;99626.78;4977013;28;20113;-80
2022/08/03 07:51:36;;;;;;;9.38;1.92;;;;;;;28.47;40.05;99619.75;4991953;28;20034;-81
2022/08/03 07:54:02;;;;;;;6.03;1.92;;;;;;;28.54;38.79;99617.75;4991913;28;20339;-80
2022/08/03 07:56:28;;;;;;;6.50;1.85;;;;;;;28.59;39.02;99620.66;4991720;28;20046;-81
2022/08/03 07:58:54;;;;;;;7.55;1.90;;;;;;;28.69;39.08;99611.81;4977048;28;20074;-80
2022/08/03 08:01:20;;;;;;;12.27;2.20;;;;;;;28.68;39.57;99615.66;4959714;28;20038;-85
2022/08/03 08:03:46;;;;;;;13.18;2.05;;;;;;;28.67;39.00;99614.81;4975512;28;20054;-82
2022/08/03 08:06:12;;;;;;;3.80;2.05;;;;;;;28.80;39.28;99620.09;4991849;28;20043;-80
2022/08/03 08:08:39;;;;;;;12.18;2.00;;;;;;;28.42;39.15;99616.88;4991563;28;20074;-80
2022/08/03 08:11:05;;;;;;;5.95;2.03;;;;;;;28.06;39.15;99611.16;4975561;28;20047;-81
2022/08/03 08:13:31;;;;;;;5.43;1.70;;;;;;;27.94;39.51;99620.38;4991376;28;20047;-81
2022/08/03 08:15:56;;;;;;;4.82;1.70;;;;;;;28.04;39.49;99616.03;4976318;28;20043;-80
2022/08/03 08:18:23;;;;;;;7.53;1.70;;;;;;;28.48;39.48;99621.44;4975120;28;20043;-81
2022/08/03 08:20:49;;;;;;;10.43;3.88;;;;;;;28.88;38.86;99604.34;4991515;28;20055;-81
2022/08/03 08:23:21;;;;;;;7.40;2.50;;;;;;;29.39;38.43;99608.38;4975006;28;20045;-82
2022/08/03 08:25:47;;;;;;;5.90;2.50;;;;;;;29.54;36.82;99611.50;4976505;28;20402;-81
2022/08/03 08:28:13;;;;;;;7.97;1.63;;;;;;;29.70;36.25;99596.19;4974936;28;20494;-81
2022/08/03 08:30:39;;;;;;;4.50;1.60;;;;;;;30.10;35.55;99611.94;4974112;28;20041;-82
2022/08/03 08:33:05;;;;;;;5.07;1.52;;;;;;;30.30;34.57;99617.03;4974836;28;20491;-81
2022/08/03 08:35:31;;;;;;;3.70;1.50;;;;;;;30.54;34.74;99618.63;4958994;28;20050;-81
2022/08/03 08:37:59;;;;;;;5.93;1.67;;;;;;;30.68;34.32;99603.44;4990873;28;20039;-82
2022/08/03 08:40:26;;;;;;;9.67;1.50;;;;;;;30.91;33.51;99608.00;4990774;28;20065;-81
2022/08/03 08:42:52;;;;;;;6.53;2.27;;;;;;;30.83;33.11;99600.16;4958796;28;20054;-81
2022/08/03 08:45:19;;;;;;;7.28;3.47;;;;;;;31.28;33.08;99609.44;4974181;28;20042;-80
2022/08/03 08:47:47;;;;;;;6.30;1.40;;;;;;;31.66;32.26;99603.16;4990630;28;20050;-80
2022/08/03 08:50:13;;;;;;;;;;;;;;;31.78;31.78;99608.56;4991081;28;20082;-78
2022/08/03 08:52:41;;;;;;;6.05;1.90;;;;;;;31.51;31.51;99592.72;4990860;28;19925;-81
2022/08/03 08:55:08;;;;;;;3.47;1.55;;;;;;;31.26;32.18;99603.34;4974237;28;20053;-80
2022/08/03 08:57:36;;;;;;;3.70;1.45;;;;;;;30.98;31.23;99587.69;4974150;28;20047;-80
2022/08/03 09:00:08;;;;;;;9.57;1.70;;;;;;;31.23;31.37;99592.81;4974256;28;20047;-82
2022/08/03 09:02:34;;;;;;;5.10;1.50;;;;;;;31.58;31.16;99590.59;4990610;28;20050;-80
2022/08/03 09:05:00;;;;;;;6.05;1.48;;;;;;;31.67;30.77;99605.66;4975527;28;20532;-80
2022/08/03 09:07:27;;;;;;;6.78;1.38;;;;;;;32.05;30.99;99601.22;4958134;28;20047;-82
2022/08/03 09:09:53;;;;;;;2.08;1.30;;;;;;;32.49;30.04;99592.06;4990529;28;20066;-81
2022/08/03 09:12:19;;;;;;;4.32;1.13;;;;;;;32.66;28.89;99583.69;4974334;28;20043;-81
2022/08/03 09:14:45;;;;;;;1.88;1.30;;;;;;;32.91;28.85;99597.72;4975189;28;20043;-80
2022/08/03 09:17:11;;;;;;;6.40;1.20;;;;;;;33.39;28.04;99595.09;4974195;28;20074;-81
2022/08/03 09:19:37;;;;;;;5.20;1.42;;;;;;;33.92;27.48;99594.06;4974075;28;20043;-81
2022/08/03 09:22:08;;;;;;;4.43;1.20;;;;;;;33.84;26.86;99594.56;4989885;28;20097;-81
2022/08/03 09:24:35;;;;;;;1.20;1.08;;;;;;;33.49;27.28;99592.44;4973904;28;20042;-80
2022/08/03 09:27:01;;;;;;;3.78;1.80;;;;;;;33.10;27.61;99587.97;4973866;28;20042;-80
2022/08/03 09:29:32;;;;;;;3.20;1.30;;;;;;;32.71;28.62;99580.94;4989687;28;20054;-81
2022/08/03 09:32:03;;;;;;;7.50;1.52;;;;;;;32.33;29.17;99591.88;4975014;28;20059;-80
2022/08/03 09:34:29;;;;;;;6.70;1.50;;;;;;;32.57;29.01;99592.47;4989876;28;20565;-81
2022/08/03 09:36:57;;;;;;;1.60;1.50;;;;;;;32.68;28.65;99592.53;4974698;28;20117;-81
2022/08/03 09:39:30;;;;;;;5.97;1.53;;;;;;;33.18;28.59;99596.91;4990065;28;20476;-82
2022/08/03 09:42:12;;;;;;;1.10;1.00;;;;;;;33.86;27.11;99584.06;4973063;28;20296;-81
2022/08/03 09:44:42;;;;;;;3.70;1.02;;;;;;;34.02;27.04;99577.50;4973549;28;20047;-80
2022/08/03 09:47:10;;;;;;;3.75;1.27;;;;;;;34.27;27.20;99587.84;4974068;28;20042;-80
2022/08/03 09:49:37;;;;;;;7.07;1.23;;;;;;;34.44;26.91;99584.00;4973545;28;20062;-83
2022/08/03 09:52:21;;;;;;;6.43;1.30;;;;;;;34.30;26.58;99586.47;4973679;28;20051;-81
2022/08/03 09:54:51;;;;;;;2.88;1.30;;;;;;;33.84;27.00;99583.47;4973687;28;20046;-82
2022/08/03 09:57:24;;;;;;;2.45;1.35;;;;;;;33.16;27.79;99579.69;4974032;28;20061;-81
2022/08/03 09:59:52;;;;;;;7.03;1.40;;;;;;;32.13;29.03;99584.19;4973615;28;20050;-81
2022/08/03 10:02:25;;;;;;;3.47;1.17;;;;;;;30.96;31.07;99594.31;4973541;28;20062;-82
2022/08/03 10:04:53;;;;;;;1.58;1.13;;;;;;;30.35;31.86;99592.31;4973348;28;20554;-80
2022/08/03 10:07:21;;;;;;;3.42;1.10;;;;;;;30.39;32.14;99599.00;4973263;28;20050;-81
2022/08/03 10:09:53;;;;;;;;;;;;;;;30.62;32.03;99604.44;4973762;28;20043;-80
2022/08/03 10:12:20;;;;;;;3.70;1.50;;;;;;;30.77;32.10;99608.56;4973189;28;19989;-81
2022/08/03 10:14:46;;;;;;;4.80;1.55;;;;;;;30.96;31.77;99604.53;4989281;28;20050;-82
2022/08/03 10:17:15;;;;;;;5.57;1.67;;;;;;;31.51;31.03;99612.03;4972978;28;20035;-82
2022/08/03 10:19:41;;;;;;;8.25;1.80;;;;;;;31.83;30.34;99597.59;4973210;28;20137;-80
2022/08/03 10:22:26;;;;;;;5.95;1.52;;;;;;;32.81;28.42;99594.88;4973053;28;20202;-82
2022/08/03 10:24:58;;;;;;;1.27;1.15;;;;;;;32.37;28.19;99597.72;4940981;28;20039;-81
2022/08/03 10:27:26;;;;;;;6.53;1.77;;;;;;;32.61;27.86;99599.13;4973150;28;20106;-81
2022/08/03 10:29:55;;;;;;;1.80;1.17;;;;;;;33.57;27.46;99598.31;4973042;28;20039;-82
2022/08/03 10:32:27;;;;;;;1.00;1.00;;;;;;;34.55;26.30;99594.88;4972858;28;20081;-82
2022/08/03 10:35:09;;;;;;;8.23;1.25;;;;;;;34.53;25.58;99597.13;4972875;28;20181;-81
2022/08/03 10:37:44;;;;;;;1.98;1.20;;;;;;;33.99;26.02;99580.81;4973765;28;20051;-82
2022/08/03 10:40:19;;;;;;;2.95;1.20;;;;;;;33.80;26.46;99599.81;4973373;28;20043;-81
2022/08/03 10:42:45;;;;;;;3.33;1.40;;;;;;;33.65;26.67;99587.81;4973028;28;20042;-81
2022/08/03 10:45:24;;;;;;;3.08;1.25;;;;;;;34.07;27.02;99588.59;4989255;28;20074;-81
2022/08/03 10:47:52;;;;;;;2.38;1.45;;;;;;;35.33;25.81;99591.06;4972796;28;20506;-81
2022/08/03 10:50:18;;;;;;;2.40;1.17;;;;;;;36.03;24.18;99590.38;4973787;28;20083;-80
2022/08/03 10:52:54;;;;;;;2.70;1.10;;;;;;;37.02;23.75;99593.19;4973323;28;20077;-81
2022/08/03 10:58:39;;;;;;;4.30;0.98;;;;;;;36.93;21.51;99592.91;4976966;28;20150;-81
2022/08/03 11:01:07;;;;;;;2.97;1.20;;;;;;;35.77;22.86;99598.81;4960271;28;20502;-82
2022/08/03 11:03:53;;;;;;;2.78;1.00;;;;;;;35.16;23.69;99596.06;4976582;28;20051;-80
2022/08/03 11:06:23;;;;;;;5.82;1.30;;;;;;;34.50;24.76;99594.88;4976480;28;20043;-81
2022/08/03 11:09:09;;;;;;;4.30;1.45;;;;;;;35.07;24.60;99600.53;4992541;28;20047;-82
2022/08/03 11:11:41;;;;;;;2.50;1.30;;;;;;;35.35;24.00;99591.59;4992633;28;20039;-82
2022/08/03 11:14:10;;;;;;;12.52;1.30;;;;;;;35.10;24.15;99599.97;4992577;28;20062;-81
2022/08/03 11:16:44;;;;;;;2.15;1.20;;;;;;;34.61;23.40;99592.13;4976347;28;20069;-81
2022/08/03 11:19:21;;;;;;;4.30;1.23;;;;;;;34.55;24.46;99597.66;4976121;28;20058;-82
2022/08/03 11:21:47;;;;;;;2.93;1.20;;;;;;;35.40;23.57;99593.56;4977415;28;20101;-81
2022/08/03 11:24:45;;;;;;;2.53;1.25;;;;;;;35.51;23.21;99587.72;4976029;28;20456;-81
2022/08/03 11:27:14;;;;;;;5.60;1.42;;;;;;;36.41;22.75;99578.50;4975977;28;20043;-81
2022/08/03 11:29:59;;;;;;;2.65;1.27;;;;;;;37.59;21.77;99586.78;4959740;28;20537;-80
2022/08/03 11:32:37;;;;;;;1.48;1.10;;;;;;;38.43;20.93;99582.72;4975741;28;20066;-82
2022/08/03 11:35:11;;;;;;;5.97;1.30;;;;;;;38.82;20.62;99579.66;4959885;28;20109;-80
2022/08/03 11:37:59;;;;;;;1.55;1.00;;;;;;;37.89;20.90;99587.59;4976202;28;20481;-82
2022/08/03 11:40:47;;;;;;;3.80;1.38;;;;;;;37.76;21.56;99583.50;4977706;28;20046;-80
2022/08/03 11:43:22;;;;;;;1.10;1.00;;;;;;;37.23;21.56;99586.28;4977382;28;20125;-80
2022/08/03 11:46:11;;;;;;;4.28;1.25;;;;;;;37.39;21.76;99573.88;4963372;28;20494;-82
2022/08/03 11:48:43;;;;;;;4.25;1.23;;;;;;;38.04;20.93;99578.22;4992474;28;20063;-81